Buoy 41991

sailwx.info

Track history (hours):
 
Tides and Currents Weather Stations Pressure Air Temp Water Temp Dewpoint Dewpoint Depression Visibility Wind Speed Wind Dir Waves Ship Positions

Drifting buoy 41991

Last reported at 2016-Jul-25 19:47 UTC. Time now 2016-Jul-25 22:01 UTC.
Position N 28°08' W 050°25'.

Water temperature 27.9 ° C

Date/timePositionNaut miles runAvg speedWind from/ knotsBaromVisibWave heightAir tempDewpointWater temp
2016-Jul-25 19:47N 28°08' W 050°25'0 0.4 27.9
2016-Jul-25 18:48N 28°08' W 050°25'1 0.4 27.9
2016-Jul-25 17:00N 28°08' W 050°24'0 0.0 27.9
2016-Jul-25 14:35N 28°08' W 050°24'111.2 27.5
2016-Jul-25 14:30N 28°08' W 050°23'0 0.2 27.5
2016-Jul-25 12:48N 28°08' W 050°23'0 0.0 27.3
2016-Jul-25 11:48N 28°08' W 050°23'1 1.4 27.3
2016-Jul-25 10:52N 28°08' W 050°22'1 1.3 27.3
2016-Jul-25 10:24N 28°08' W 050°22'0 1.0 27.3
2016-Jul-25 10:08N 28°08' W 050°22'1 9.6 27.3
2016-Jul-25 10:01N 28°08' W 050°21'0 0.1 27.3
2016-Jul-25 08:44N 28°08' W 050°21'0 5.3 27.3
2016-Jul-25 08:39N 28°08' W 050°20'1 2.6 27.3
2016-Jul-25 08:26N 28°08' W 050°20'0 0.0 27.3
2016-Jul-25 07:36N 28°08' W 050°20'0 0.3 27.3
2016-Jul-25 07:24N 28°08' W 050°20'126.5 27.3
2016-Jul-25 07:22N 28°09' W 050°19'3 1.4 27.3
2016-Jul-25 05:38N 28°10' W 050°17'0 0.0 27.4
2016-Jul-25 00:33N 28°10' W 050°17'0 3.7 27.7
2016-Jul-25 00:26N 28°10' W 050°17'1 1.7 27.7
2016-Jul-24 23:42N 28°11' W 050°16'0 0.0 27.7
2016-Jul-24 22:46N 28°11' W 050°16'0 0.0 27.8
2016-Jul-24 22:02N 28°11' W 050°16'0 0.7 27.8
2016-Jul-24 21:39N 28°11' W 050°16'0 0.1 27.9
2016-Jul-24 20:18N 28°11' W 050°16'0 1.0 28.1
2016-Jul-24 20:01N 28°11' W 050°16'0 0.1 28.1
2016-Jul-24 17:22N 28°11' W 050°16'1 9.0 28.1
2016-Jul-24 17:13N 28°10' W 050°14'0 0.0 28.1
2016-Jul-24 14:54N 28°10' W 050°14'0 0.0 27.6
2016-Jul-24 13:18N 28°10' W 050°14'1 4.9 27.5
2016-Jul-24 13:09N 28°10' W 050°13'0 0.0 27.5
2016-Jul-24 11:54N 28°10' W 050°13'0 0.0 27.4
2016-Jul-24 11:32N 28°10' W 050°13'0 0.0 27.4
2016-Jul-24 10:46N 28°10' W 050°13'1 1.6 27.4
2016-Jul-24 10:23N 28°10' W 050°13'0 0.7 27.3
2016-Jul-24 10:12N 28°10' W 050°13'0 0.1 27.3
2016-Jul-24 09:45N 28°10' W 050°13'1 6.0 27.4
2016-Jul-24 09:38N 28°10' W 050°12'0 0.5 27.4
2016-Jul-24 09:03N 28°10' W 050°12'0 0.8 27.4
2016-Jul-24 08:38N 28°10' W 050°12'0 4.9 27.4
2016-Jul-24 08:32N 28°10' W 050°11'0 0.5 27.4
2016-Jul-24 08:07N 28°10' W 050°12'0 0.5 27.4
2016-Jul-24 07:41N 28°10' W 050°11'1 5.8 27.4
2016-Jul-24 07:35N 28°10' W 050°11'2 0.3 27.4
2016-Jul-24 00:54N 28°11' W 050°09'0 0.6 27.6
2016-Jul-24 00:49N 28°11' W 050°09'1 0.3 27.6
2016-Jul-23 23:12N 28°11' W 050°08'0 0.5 27.6
2016-Jul-23 22:37N 28°11' W 050°08'0 1.5 27.6
2016-Jul-23 22:24N 28°12' W 050°08'0 0.0 27.6
2016-Jul-23 21:52N 28°12' W 050°08'0 2.9 27.7
2016-Jul-23 21:45N 28°12' W 050°08'0 0.5 27.7
2016-Jul-23 20:48N 28°12' W 050°08'0 0.0 27.7
2016-Jul-23 20:42N 28°12' W 050°08'0 1.6 27.7
2016-Jul-23 20:39N 28°12' W 050°08'0 0.0 27.7
2016-Jul-23 20:09N 28°12' W 050°08'0 0.3 27.7
2016-Jul-23 19:08N 28°12' W 050°08'0 4.8 27.8
2016-Jul-23 19:04N 28°12' W 050°07'0 0.3 27.8
2016-Jul-23 17:32N 28°12' W 050°07'0 0.5 27.7
2016-Jul-23 17:25N 28°12' W 050°07'1 0.7 27.7
2016-Jul-23 15:48N 28°11' W 050°06'1 0.4 27.6
2016-Jul-23 13:36N 28°11' W 050°05'0 0.1 27.4
2016-Jul-23 11:08N 28°10' W 050°05'0 0.6 27.3
2016-Jul-23 10:33N 28°10' W 050°05'0 0.8 27.2
2016-Jul-23 10:17N 28°10' W 050°05'0 0.3 27.2
2016-Jul-23 08:51N 28°10' W 050°04'0 1.6 27.2
2016-Jul-23 08:38N 28°10' W 050°04'0 1.8 27.3
2016-Jul-23 08:31N 28°10' W 050°04'0 0.0 27.3
2016-Jul-23 07:52N 28°10' W 050°04'1 0.5 27.3
2016-Jul-23 06:09N 28°11' W 050°03'0 0.0 27.3
2016-Jul-23 06:07N 28°11' W 050°03'2 0.4 27.3
2016-Jul-23 01:05N 28°12' W 050°01'0 0.1 27.5
2016-Jul-22 23:02N 28°12' W 050°01'0 0.9 27.6
2016-Jul-22 22:48N 28°12' W 050°00'0 0.0 27.6
2016-Jul-22 22:02N 28°12' W 050°00'0 2.4 27.6
2016-Jul-22 21:58N 28°12' W 050°01'0 0.0 27.6
2016-Jul-22 21:28N 28°12' W 050°01'0 1.5 27.6
2016-Jul-22 21:12N 28°12' W 050°00'0 4.6 27.6
2016-Jul-22 21:08N 28°12' W 050°00'0 0.5 27.7
2016-Jul-22 20:24N 28°12' W 050°01'0 0.9 27.7
2016-Jul-22 20:20N 28°12' W 050°01'1 0.8 27.7
2016-Jul-22 19:32N 28°12' W 049°60'1 2.2 27.7
2016-Jul-22 19:16N 28°12' W 049°59'0 0.0 27.7
2016-Jul-22 17:40N 28°12' W 049°59'1 0.5 27.6
2016-Jul-22 16:02N 28°11' W 049°59'1 0.3 27.5
2016-Jul-22 13:59N 28°12' W 049°58'1 0.4 27.3
2016-Jul-22 12:10N 28°12' W 049°57'0 0.0
2016-Jul-22 10:46N 28°12' W 049°57'0 0.4 27.2
2016-Jul-22 09:54N 28°12' W 049°57'135.6 27.2
2016-Jul-22 09:52N 28°12' W 049°56'138.2 27.2
2016-Jul-22 09:51N 28°12' W 049°57'0 0.0 27.2
2016-Jul-22 09:08N 28°12' W 049°57'0 1.1 27.2
2016-Jul-22 08:54N 28°12' W 049°57'0 0.3 27.2
2016-Jul-22 08:00N 28°12' W 049°57'1 1.2 27.2
2016-Jul-22 07:28N 28°12' W 049°56'1 0.6 27.2
2016-Jul-22 06:18N 28°13' W 049°57'2 0.5 27.2
2016-Jul-22 02:18N 28°12' W 049°54'0 0.1 27.3
2016-Jul-22 01:33N 28°12' W 049°54'1 8.3 27.3
2016-Jul-22 01:28N 28°12' W 049°54'0 0.4 27.3
2016-Jul-22 00:43N 28°12' W 049°54'0 0.5 27.3
2016-Jul-21 23:51N 28°13' W 049°53'0 1.2 27.4
2016-Jul-21 23:34N 28°13' W 049°53'0 0.0 27.4
2016-Jul-21 23:01N 28°13' W 049°53'1 0.9 27.4
2016-Jul-21 22:17N 28°13' W 049°53'0 0.5 27.5
2016-Jul-21 21:54N 28°13' W 049°52'0 0.8 27.5
2016-Jul-21 21:38N 28°13' W 049°52'0 0.2 27.5
2016-Jul-21 20:37N 28°13' W 049°52'0 2.3 27.6
2016-Jul-21 20:30N 28°13' W 049°52'0 0.6 27.6
2016-Jul-21 20:09N 28°13' W 049°51'0 0.0 27.6
2016-Jul-21 19:54N 28°13' W 049°51'1 1.5 27.6
2016-Jul-21 19:33N 28°13' W 049°51'2 0.9 27.6
2016-Jul-21 17:55N 28°14' W 049°49'0 0.0 27.7
2016-Jul-21 17:51N 28°14' W 049°49'0 0.0 27.7
2016-Jul-21 16:08N 28°14' W 049°49'1 0.8 27.6
2016-Jul-21 15:02N 28°14' W 049°49'0 0.0 27.5
2016-Jul-21 14:19N 28°14' W 049°49'1 0.5 27.4
2016-Jul-21 12:39N 28°15' W 049°48'0 4.7 27.2
2016-Jul-21 12:34N 28°15' W 049°48'1 6.4 27.2
2016-Jul-21 12:28N 28°15' W 049°48'1 0.7 27.2
2016-Jul-21 11:38N 28°15' W 049°47'0 0.0 27.2
2016-Jul-21 10:52N 28°15' W 049°47'0 2.4 27.2
2016-Jul-21 10:50N 28°15' W 049°47'0 0.3 27.2
2016-Jul-21 10:13N 28°15' W 049°47'0 0.0 27.3
2016-Jul-21 09:39N 28°15' W 049°47'0 4.7 27.3
2016-Jul-21 09:34N 28°15' W 049°47'0 0.5 27.3
2016-Jul-21 08:35N 28°15' W 049°46'0 0.0 27.3
2016-Jul-21 08:08N 28°15' W 049°46'0 0.0 27.3
2016-Jul-21 08:01N 28°15' W 049°46'1 0.5 27.3
2016-Jul-21 06:28N 28°15' W 049°45'121.1 27.3
2016-Jul-21 06:25N 28°16' W 049°45'2 0.4 27.3
2016-Jul-21 01:04N 28°15' W 049°43'1 0.3 27.4
2016-Jul-20 23:22N 28°15' W 049°42'1 0.7 27.4
2016-Jul-20 22:28N 28°16' W 049°41'0 0.0 27.5
2016-Jul-20 22:25N 28°16' W 049°41'0 1.1 27.5
2016-Jul-20 22:00N 28°16' W 049°41'0 0.3 27.5
2016-Jul-20 20:50N 28°16' W 049°41'0 0.0 27.6
2016-Jul-20 20:49N 28°16' W 049°41'0 2.4 27.6
2016-Jul-20 20:40N 28°16' W 049°41'0 0.0 27.6
2016-Jul-20 20:22N 28°16' W 049°41'215.2 27.6
2016-Jul-20 20:13N 28°16' W 049°38'0 0.0 27.6
2016-Jul-20 19:43N 28°16' W 049°38'0 0.0 27.6
2016-Jul-20 18:06N 28°16' W 049°38'2 1.1 27.7
2016-Jul-20 16:25N 28°17' W 049°36'0 0.1 27.6
2016-Jul-20 14:34N 28°17' W 049°36'0 0.2 27.4
2016-Jul-20 13:46N 28°17' W 049°36'0 0.2 27.4
2016-Jul-20 12:54N 28°17' W 049°36'0 0.5 27.3
2016-Jul-20 11:57N 28°18' W 049°35'0 0.0 27.3
2016-Jul-20 11:07N 28°18' W 049°35'0 3.2 27.3
2016-Jul-20 11:04N 28°18' W 049°35'0 3.2 27.3
2016-Jul-20 10:58N 28°18' W 049°36'0 0.0 27.3
2016-Jul-20 10:48N 28°18' W 049°36'0 0.5 27.3
2016-Jul-20 10:08N 28°18' W 049°35'0 0.4 27.2
2016-Jul-20 09:17N 28°18' W 049°35'0 0.0 27.2
2016-Jul-20 08:32N 28°18' W 049°35'0 1.4 27.3
2016-Jul-20 08:25N 28°18' W 049°35'120.7 27.3
2016-Jul-20 08:23N 28°18' W 049°34'1 0.7 27.3
2016-Jul-20 06:40N 28°18' W 049°33'1 0.2 27.3
2016-Jul-20 01:22N 28°17' W 049°32'0 4.8 27.4
2016-Jul-20 01:17N 28°17' W 049°31'0 0.0 27.4
2016-Jul-20 00:36N 28°17' W 049°31'0 0.4 27.4
2016-Jul-19 23:44N 28°17' W 049°31'0 0.6 27.4
2016-Jul-19 22:54N 28°17' W 049°30'0 0.3 27.5
2016-Jul-19 22:33N 28°17' W 049°31'0 2.2 27.5
2016-Jul-19 22:20N 28°17' W 049°30'0 0.2 27.5
2016-Jul-19 21:00N 28°17' W 049°30'1 8.5 27.6
2016-Jul-19 20:51N 28°16' W 049°29'115.0 27.6
2016-Jul-19 20:48N 28°17' W 049°30'1 0.7 27.6
2016-Jul-19 19:17N 28°16' W 049°29'0 0.0 27.6
2016-Jul-19 18:18N 28°16' W 049°29'1 0.8 27.7
2016-Jul-19 16:36N 28°16' W 049°27'0 0.0 27.6
2016-Jul-19 14:06N 28°16' W 049°27'0 5.8 27.4
2016-Jul-19 14:01N 28°16' W 049°27'0 0.0 27.4
2016-Jul-19 13:22N 28°16' W 049°27'0 2.8 27.3
2016-Jul-19 13:15N 28°16' W 049°26'0 0.4 27.3
2016-Jul-19 12:23N 28°16' W 049°27'0 0.3 27.3
2016-Jul-19 11:38N 28°16' W 049°27'0 0.5 27.3
2016-Jul-19 11:08N 28°16' W 049°26'0 0.1 27.2
2016-Jul-19 10:41N 28°16' W 049°26'1 0.6 27.2
2016-Jul-19 09:03N 28°15' W 049°25'0 1.6 27.2
2016-Jul-19 09:00N 28°15' W 049°25'0 3.7 27.2
2016-Jul-19 08:54N 28°15' W 049°26'0 0.8 27.2
2016-Jul-19 08:31N 28°15' W 049°25'0 0.0 27.2
2016-Jul-19 07:54N 28°15' W 049°25'0 0.5 27.3
2016-Jul-19 07:22N 28°15' W 049°25'0 0.3 27.3
2016-Jul-19 06:55N 28°15' W 049°25'1 0.8 27.3
2016-Jul-19 05:08N 28°14' W 049°25'0 0.1 27.3
2016-Jul-19 01:36N 28°14' W 049°25'0 0.0 27.3
2016-Jul-19 00:53N 28°14' W 049°25'012.5 27.3
2016-Jul-19 00:51N 28°13' W 049°24'0 0.1 27.3
2016-Jul-19 00:05N 28°13' W 049°24'0 0.8 27.3
2016-Jul-18 23:29N 28°13' W 049°24'0 1.6 27.3
2016-Jul-18 23:17N 28°13' W 049°24'1 2.9 27.3
2016-Jul-18 22:48N 28°12' W 049°23'0 3.8 27.3
2016-Jul-18 22:43N 28°12' W 049°23'0 0.0 27.3
2016-Jul-18 21:53N 28°12' W 049°23'1 0.5 27.3
2016-Jul-18 19:28N 28°12' W 049°22'1 0.5 27.3
2016-Jul-18 18:29N 28°12' W 049°21'0 0.3 27.3
2016-Jul-18 16:48N 28°12' W 049°21'1 0.4 27.3
2016-Jul-18 14:27N 28°11' W 049°20'1 8.7 27.3
2016-Jul-18 14:23N 28°12' W 049°20'0 0.0 27.3
2016-Jul-18 13:39N 28°12' W 049°20'1 0.7 27.2
2016-Jul-18 12:40N 28°12' W 049°19'1 0.6 27.2
2016-Jul-18 11:27N 28°11' W 049°19'0 0.0 27.2
2016-Jul-18 09:54N 28°11' W 049°19'0 5.6 27.2
2016-Jul-18 09:50N 28°11' W 049°19'0 0.0 27.2
2016-Jul-18 09:45N 28°11' W 049°19'1 0.4 27.2
2016-Jul-18 08:18N 28°11' W 049°18'0 1.2 27.2
2016-Jul-18 07:55N 28°11' W 049°18'0 0.6 27.2
2016-Jul-18 07:08N 28°11' W 049°18'0 0.0 27.2
2016-Jul-18 07:06N 28°11' W 049°18'3 1.6 27.2
2016-Jul-18 05:18N 28°08' W 049°17'0 0.0 27.3
2016-Jul-18 01:58N 28°08' W 049°17'0 0.0 27.4
2016-Jul-18 00:25N 28°08' W 049°17'1 5.2 27.4
2016-Jul-18 00:18N 28°08' W 049°16'0 0.0 27.4
2016-Jul-17 23:35N 28°08' W 049°16'1 1.2 27.5
2016-Jul-17 22:58N 28°08' W 049°15'0 1.2 27.5
2016-Jul-17 22:44N 28°08' W 049°16'0 0.8 27.5
2016-Jul-17 22:22N 28°08' W 049°15'1 0.7 27.5
2016-Jul-17 21:36N 28°08' W 049°15'0 2.4 27.6
2016-Jul-17 21:29N 28°07' W 049°15'0 0.0 27.6
2016-Jul-17 21:23N 28°07' W 049°15'0 0.0 27.6
2016-Jul-17 21:20N 28°07' W 049°15'1 0.4 27.6
2016-Jul-17 19:54N 28°07' W 049°14'1 6.4 27.6
2016-Jul-17 19:49N 28°07' W 049°13'0 0.0 27.6
2016-Jul-17 19:42N 28°07' W 049°13'0 4.2 27.6
2016-Jul-17 19:36N 28°07' W 049°13'0 0.3 27.6
2016-Jul-17 18:39N 28°07' W 049°13'0 0.3 27.6
2016-Jul-17 16:54N 28°07' W 049°13'111.4 27.6
2016-Jul-17 16:50N 28°07' W 049°12'0 0.2 27.6
2016-Jul-17 14:46N 28°07' W 049°12'0 0.0 27.4
2016-Jul-17 14:03N 28°07' W 049°12'0 0.5 27.4
2016-Jul-17 13:08N 28°07' W 049°12'0 0.1 27.4
2016-Jul-17 12:12N 28°07' W 049°11'0 0.0 27.4
2016-Jul-17 11:40N 28°07' W 049°11'1 0.6 27.4
2016-Jul-17 09:55N 28°06' W 049°10'0 0.0 27.4
2016-Jul-17 09:51N 28°06' W 049°10'0 0.0 27.4
2016-Jul-17 08:26N 28°06' W 049°10'0 2.8 27.4
2016-Jul-17 08:20N 28°06' W 049°10'0 0.0 27.4
2016-Jul-17 07:20N 28°06' W 049°10'1 3.5 27.4
2016-Jul-17 07:11N 28°06' W 049°10'2 0.4 27.4
2016-Jul-17 02:18N 28°04' W 049°08'0 0.5
2016-Jul-17 01:32N 28°04' W 049°08'1 0.8 27.6
2016-Jul-17 00:39N 28°04' W 049°08'0 0.1 27.6
2016-Jul-16 23:52N 28°04' W 049°08'0 0.4 27.6
2016-Jul-16 22:59N 28°04' W 049°08'0 0.0 27.7
2016-Jul-16 22:53N 28°04' W 049°08'0 1.3 27.7
2016-Jul-16 22:48N 28°04' W 049°08'1 0.8 27.7
2016-Jul-16 22:00N 28°03' W 049°07'1 4.6 27.7
2016-Jul-16 21:53N 28°03' W 049°07'0 0.0 27.8
2016-Jul-16 21:35N 28°03' W 049°07'0 3.2 27.8
2016-Jul-16 21:31N 28°03' W 049°07'0 0.2 27.8
2016-Jul-16 20:22N 28°03' W 049°07'0 3.2 27.8
2016-Jul-16 20:13N 28°03' W 049°07'0 0.0 27.8
2016-Jul-16 19:53N 28°03' W 049°07'0 3.5 27.8
2016-Jul-16 19:48N 28°02' W 049°06'0 0.0 27.8
2016-Jul-16 18:51N 28°02' W 049°06'2 0.4 27.8
2016-Jul-16 14:16N 28°01' W 049°05'0 0.0 27.8
2016-Jul-16 13:30N 28°01' W 049°05'0 0.5 27.7
2016-Jul-16 12:42N 28°01' W 049°05'1 1.0 27.7
2016-Jul-16 11:45N 28°01' W 049°04'0 0.0 27.7
2016-Jul-16 11:41N 28°01' W 049°04'0 0.0 27.7
2016-Jul-16 10:46N 28°01' W 049°04'0 1.0 27.8
2016-Jul-16 10:31N 28°01' W 049°04'0 6.5 27.8
2016-Jul-16 10:28N 28°01' W 049°05'1 1.7 27.8
2016-Jul-16 10:05N 28°00' W 049°04'0 0.4 27.8
2016-Jul-16 09:02N 28°00' W 049°05'0 3.1 27.8
2016-Jul-16 08:53N 28°00' W 049°04'027.6 27.8
2016-Jul-16 08:52N 28°00' W 049°05'0 0.0 27.8
2016-Jul-16 08:50N 28°00' W 049°05'1 0.4 27.8
2016-Jul-16 07:30N 28°00' W 049°04'0 1.6 27.9
2016-Jul-16 07:26N 28°00' W 049°04'0 1.6 27.9
2016-Jul-16 07:22N 28°00' W 049°04'0 0.0 27.9
2016-Jul-16 07:15N 28°00' W 049°04'1 0.1 27.9
2016-Jul-16 01:54N 27°60' W 049°04'0 3.7
2016-Jul-16 01:52N 27°60' W 049°03'0 0.1 28.0
2016-Jul-16 01:06N 27°60' W 049°03'0 0.6 28.1
2016-Jul-16 01:01N 27°60' W 049°03'0 0.0 28.1
2016-Jul-16 00:18N 27°60' W 049°03'0 0.8 28.1
2016-Jul-16 00:14N 27°60' W 049°04'0 0.1 28.1
2016-Jul-15 23:23N 27°60' W 049°03'1 5.9 28.1
2016-Jul-15 23:17N 27°60' W 049°03'0 0.0 28.1
2016-Jul-15 22:24N 27°60' W 049°03'1 9.5 28.1
2016-Jul-15 22:20N 27°60' W 049°02'0 0.0 28.1
2016-Jul-15 21:46N 27°60' W 049°02'0 0.4 28.0
2016-Jul-15 20:48N 27°60' W 049°03'0 3.7 28.0
2016-Jul-15 20:42N 28°00' W 049°02'0 0.2 28.0
2016-Jul-15 20:01N 28°00' W 049°02'   28.4
Track history (hours):
 
Tides and Currents Weather Stations Pressure Air Temp Water Temp Dewpoint Dewpoint Depression Visibility Wind Speed Wind Dir Waves Ship Positions

Drifting buoy 41991

Last reported at 2016-Jul-25 19:47 UTC. Time now 2016-Jul-25 22:01 UTC.
Position N 28°08' W 050°25'.

Water temperature 27.9 ° C

Date/timePositionNaut miles runAvg speedWind from/ knotsBaromVisibWave heightAir tempDewpointWater temp
2016-Jul-25 19:47N 28°08' W 050°25'0 0.4 27.9
2016-Jul-25 18:48N 28°08' W 050°25'1 0.4 27.9
2016-Jul-25 17:00N 28°08' W 050°24'0 0.0 27.9
2016-Jul-25 14:35N 28°08' W 050°24'111.2 27.5
2016-Jul-25 14:30N 28°08' W 050°23'0 0.2 27.5
2016-Jul-25 12:48N 28°08' W 050°23'0 0.0 27.3
2016-Jul-25 11:48N 28°08' W 050°23'1 1.4 27.3
2016-Jul-25 10:52N 28°08' W 050°22'1 1.3 27.3
2016-Jul-25 10:24N 28°08' W 050°22'0 1.0 27.3
2016-Jul-25 10:08N 28°08' W 050°22'1 9.6 27.3
2016-Jul-25 10:01N 28°08' W 050°21'0 0.1 27.3
2016-Jul-25 08:44N 28°08' W 050°21'0 5.3 27.3
2016-Jul-25 08:39N 28°08' W 050°20'1 2.6 27.3
2016-Jul-25 08:26N 28°08' W 050°20'0 0.0 27.3
2016-Jul-25 07:36N 28°08' W 050°20'0 0.3 27.3
2016-Jul-25 07:24N 28°08' W 050°20'126.5 27.3
2016-Jul-25 07:22N 28°09' W 050°19'3 1.4 27.3
2016-Jul-25 05:38N 28°10' W 050°17'0 0.0 27.4
2016-Jul-25 00:33N 28°10' W 050°17'0 3.7 27.7
2016-Jul-25 00:26N 28°10' W 050°17'1 1.7 27.7
2016-Jul-24 23:42N 28°11' W 050°16'0 0.0 27.7
2016-Jul-24 22:46N 28°11' W 050°16'0 0.0 27.8
2016-Jul-24 22:02N 28°11' W 050°16'0 0.7 27.8
2016-Jul-24 21:39N 28°11' W 050°16'0 0.1 27.9
2016-Jul-24 20:18N 28°11' W 050°16'0 1.0 28.1
2016-Jul-24 20:01N 28°11' W 050°16'0 0.1 28.1
2016-Jul-24 17:22N 28°11' W 050°16'1 9.0 28.1
2016-Jul-24 17:13N 28°10' W 050°14'0 0.0 28.1
2016-Jul-24 14:54N 28°10' W 050°14'0 0.0 27.6
2016-Jul-24 13:18N 28°10' W 050°14'1 4.9 27.5
2016-Jul-24 13:09N 28°10' W 050°13'0 0.0 27.5
2016-Jul-24 11:54N 28°10' W 050°13'0 0.0 27.4
2016-Jul-24 11:32N 28°10' W 050°13'0 0.0 27.4
2016-Jul-24 10:46N 28°10' W 050°13'1 1.6 27.4
2016-Jul-24 10:23N 28°10' W 050°13'0 0.7 27.3
2016-Jul-24 10:12N 28°10' W 050°13'0 0.1 27.3
2016-Jul-24 09:45N 28°10' W 050°13'1 6.0 27.4
2016-Jul-24 09:38N 28°10' W 050°12'0 0.5 27.4
2016-Jul-24 09:03N 28°10' W 050°12'0 0.8 27.4
2016-Jul-24 08:38N 28°10' W 050°12'0 4.9 27.4
2016-Jul-24 08:32N 28°10' W 050°11'0 0.5 27.4
2016-Jul-24 08:07N 28°10' W 050°12'0 0.5 27.4
2016-Jul-24 07:41N 28°10' W 050°11'1 5.8 27.4
2016-Jul-24 07:35N 28°10' W 050°11'2 0.3 27.4
2016-Jul-24 00:54N 28°11' W 050°09'0 0.6 27.6
2016-Jul-24 00:49N 28°11' W 050°09'1 0.3 27.6
2016-Jul-23 23:12N 28°11' W 050°08'0 0.5 27.6
2016-Jul-23 22:37N 28°11' W 050°08'0 1.5 27.6
2016-Jul-23 22:24N 28°12' W 050°08'0 0.0 27.6
2016-Jul-23 21:52N 28°12' W 050°08'0 2.9 27.7
2016-Jul-23 21:45N 28°12' W 050°08'0 0.5 27.7
2016-Jul-23 20:48N 28°12' W 050°08'0 0.0 27.7
2016-Jul-23 20:42N 28°12' W 050°08'0 1.6 27.7
2016-Jul-23 20:39N 28°12' W 050°08'0 0.0 27.7
2016-Jul-23 20:09N 28°12' W 050°08'0 0.3 27.7
2016-Jul-23 19:08N 28°12' W 050°08'0 4.8 27.8
2016-Jul-23 19:04N 28°12' W 050°07'0 0.3 27.8
2016-Jul-23 17:32N 28°12' W 050°07'0 0.5 27.7
2016-Jul-23 17:25N 28°12' W 050°07'1 0.7 27.7
2016-Jul-23 15:48N 28°11' W 050°06'1 0.4 27.6
2016-Jul-23 13:36N 28°11' W 050°05'0 0.1 27.4
2016-Jul-23 11:08N 28°10' W 050°05'0 0.6 27.3
2016-Jul-23 10:33N 28°10' W 050°05'0 0.8 27.2
2016-Jul-23 10:17N 28°10' W 050°05'0 0.3 27.2
2016-Jul-23 08:51N 28°10' W 050°04'0 1.6 27.2
2016-Jul-23 08:38N 28°10' W 050°04'0 1.8 27.3
2016-Jul-23 08:31N 28°10' W 050°04'0 0.0 27.3
2016-Jul-23 07:52N 28°10' W 050°04'1 0.5 27.3
2016-Jul-23 06:09N 28°11' W 050°03'0 0.0 27.3
2016-Jul-23 06:07N 28°11' W 050°03'2 0.4 27.3
2016-Jul-23 01:05N 28°12' W 050°01'0 0.1 27.5
2016-Jul-22 23:02N 28°12' W 050°01'0 0.9 27.6
2016-Jul-22 22:48N 28°12' W 050°00'0 0.0 27.6
2016-Jul-22 22:02N 28°12' W 050°00'0 2.4 27.6
2016-Jul-22 21:58N 28°12' W 050°01'0 0.0 27.6
2016-Jul-22 21:28N 28°12' W 050°01'0 1.5 27.6
2016-Jul-22 21:12N 28°12' W 050°00'0 4.6 27.6
2016-Jul-22 21:08N 28°12' W 050°00'0 0.5 27.7
2016-Jul-22 20:24N 28°12' W 050°01'0 0.9 27.7
2016-Jul-22 20:20N 28°12' W 050°01'1 0.8 27.7
2016-Jul-22 19:32N 28°12' W 049°60'1 2.2 27.7
2016-Jul-22 19:16N 28°12' W 049°59'0 0.0 27.7
2016-Jul-22 17:40N 28°12' W 049°59'1 0.5 27.6
2016-Jul-22 16:02N 28°11' W 049°59'1 0.3 27.5
2016-Jul-22 13:59N 28°12' W 049°58'1 0.4 27.3
2016-Jul-22 12:10N 28°12' W 049°57'0 0.0
2016-Jul-22 10:46N 28°12' W 049°57'0 0.4 27.2
2016-Jul-22 09:54N 28°12' W 049°57'135.6 27.2
2016-Jul-22 09:52N 28°12' W 049°56'138.2 27.2
2016-Jul-22 09:51N 28°12' W 049°57'0 0.0 27.2
2016-Jul-22 09:08N 28°12' W 049°57'0 1.1 27.2
2016-Jul-22 08:54N 28°12' W 049°57'0 0.3 27.2
2016-Jul-22 08:00N 28°12' W 049°57'1 1.2 27.2
2016-Jul-22 07:28N 28°12' W 049°56'1 0.6 27.2
2016-Jul-22 06:18N 28°13' W 049°57'2 0.5 27.2
2016-Jul-22 02:18N 28°12' W 049°54'0 0.1 27.3
2016-Jul-22 01:33N 28°12' W 049°54'1 8.3 27.3
2016-Jul-22 01:28N 28°12' W 049°54'0 0.4 27.3
2016-Jul-22 00:43N 28°12' W 049°54'0 0.5 27.3
2016-Jul-21 23:51N 28°13' W 049°53'0 1.2 27.4
2016-Jul-21 23:34N 28°13' W 049°53'0 0.0 27.4
2016-Jul-21 23:01N 28°13' W 049°53'1 0.9 27.4
2016-Jul-21 22:17N 28°13' W 049°53'0 0.5 27.5
2016-Jul-21 21:54N 28°13' W 049°52'0 0.8 27.5
2016-Jul-21 21:38N 28°13' W 049°52'0 0.2 27.5
2016-Jul-21 20:37N 28°13' W 049°52'0 2.3 27.6
2016-Jul-21 20:30N 28°13' W 049°52'0 0.6 27.6
2016-Jul-21 20:09N 28°13' W 049°51'0 0.0 27.6
2016-Jul-21 19:54N 28°13' W 049°51'1 1.5 27.6
2016-Jul-21 19:33N 28°13' W 049°51'2 0.9 27.6
2016-Jul-21 17:55N 28°14' W 049°49'0 0.0 27.7
2016-Jul-21 17:51N 28°14' W 049°49'0 0.0 27.7
2016-Jul-21 16:08N 28°14' W 049°49'1 0.8 27.6
2016-Jul-21 15:02N 28°14' W 049°49'0 0.0 27.5
2016-Jul-21 14:19N 28°14' W 049°49'1 0.5 27.4
2016-Jul-21 12:39N 28°15' W 049°48'0 4.7 27.2
2016-Jul-21 12:34N 28°15' W 049°48'1 6.4 27.2
2016-Jul-21 12:28N 28°15' W 049°48'1 0.7 27.2
2016-Jul-21 11:38N 28°15' W 049°47'0 0.0 27.2
2016-Jul-21 10:52N 28°15' W 049°47'0 2.4 27.2
2016-Jul-21 10:50N 28°15' W 049°47'0 0.3 27.2
2016-Jul-21 10:13N 28°15' W 049°47'0 0.0 27.3
2016-Jul-21 09:39N 28°15' W 049°47'0 4.7 27.3
2016-Jul-21 09:34N 28°15' W 049°47'0 0.5 27.3
2016-Jul-21 08:35N 28°15' W 049°46'0 0.0 27.3
2016-Jul-21 08:08N 28°15' W 049°46'0 0.0 27.3
2016-Jul-21 08:01N 28°15' W 049°46'1 0.5 27.3
2016-Jul-21 06:28N 28°15' W 049°45'121.1 27.3
2016-Jul-21 06:25N 28°16' W 049°45'2 0.4 27.3
2016-Jul-21 01:04N 28°15' W 049°43'1 0.3 27.4
2016-Jul-20 23:22N 28°15' W 049°42'1 0.7 27.4
2016-Jul-20 22:28N 28°16' W 049°41'0 0.0 27.5
2016-Jul-20 22:25N 28°16' W 049°41'0 1.1 27.5
2016-Jul-20 22:00N 28°16' W 049°41'0 0.3 27.5
2016-Jul-20 20:50N 28°16' W 049°41'0 0.0 27.6
2016-Jul-20 20:49N 28°16' W 049°41'0 2.4 27.6
2016-Jul-20 20:40N 28°16' W 049°41'0 0.0 27.6
2016-Jul-20 20:22N 28°16' W 049°41'215.2 27.6
2016-Jul-20 20:13N 28°16' W 049°38'0 0.0 27.6
2016-Jul-20 19:43N 28°16' W 049°38'0 0.0 27.6
2016-Jul-20 18:06N 28°16' W 049°38'2 1.1 27.7
2016-Jul-20 16:25N 28°17' W 049°36'0 0.1 27.6
2016-Jul-20 14:34N 28°17' W 049°36'0 0.2 27.4
2016-Jul-20 13:46N 28°17' W 049°36'0 0.2 27.4
2016-Jul-20 12:54N 28°17' W 049°36'0 0.5 27.3
2016-Jul-20 11:57N 28°18' W 049°35'0 0.0 27.3
2016-Jul-20 11:07N 28°18' W 049°35'0 3.2 27.3
2016-Jul-20 11:04N 28°18' W 049°35'0 3.2 27.3
2016-Jul-20 10:58N 28°18' W 049°36'0 0.0 27.3
2016-Jul-20 10:48N 28°18' W 049°36'0 0.5 27.3
2016-Jul-20 10:08N 28°18' W 049°35'0 0.4 27.2
2016-Jul-20 09:17N 28°18' W 049°35'0 0.0 27.2
2016-Jul-20 08:32N 28°18' W 049°35'0 1.4 27.3
2016-Jul-20 08:25N 28°18' W 049°35'120.7 27.3
2016-Jul-20 08:23N 28°18' W 049°34'1 0.7 27.3
2016-Jul-20 06:40N 28°18' W 049°33'1 0.2 27.3
2016-Jul-20 01:22N 28°17' W 049°32'0 4.8 27.4
2016-Jul-20 01:17N 28°17' W 049°31'0 0.0 27.4
2016-Jul-20 00:36N 28°17' W 049°31'0 0.4 27.4
2016-Jul-19 23:44N 28°17' W 049°31'0 0.6 27.4
2016-Jul-19 22:54N 28°17' W 049°30'0 0.3 27.5
2016-Jul-19 22:33N 28°17' W 049°31'0 2.2 27.5
2016-Jul-19 22:20N 28°17' W 049°30'0 0.2 27.5
2016-Jul-19 21:00N 28°17' W 049°30'1 8.5 27.6
2016-Jul-19 20:51N 28°16' W 049°29'115.0 27.6
2016-Jul-19 20:48N 28°17' W 049°30'1 0.7 27.6
2016-Jul-19 19:17N 28°16' W 049°29'0 0.0 27.6
2016-Jul-19 18:18N 28°16' W 049°29'1 0.8 27.7
2016-Jul-19 16:36N 28°16' W 049°27'0 0.0 27.6
2016-Jul-19 14:06N 28°16' W 049°27'0 5.8 27.4
2016-Jul-19 14:01N 28°16' W 049°27'0 0.0 27.4
2016-Jul-19 13:22N 28°16' W 049°27'0 2.8 27.3
2016-Jul-19 13:15N 28°16' W 049°26'0 0.4 27.3
2016-Jul-19 12:23N 28°16' W 049°27'0 0.3 27.3
2016-Jul-19 11:38N 28°16' W 049°27'0 0.5 27.3
2016-Jul-19 11:08N 28°16' W 049°26'0 0.1 27.2
2016-Jul-19 10:41N 28°16' W 049°26'1 0.6 27.2
2016-Jul-19 09:03N 28°15' W 049°25'0 1.6 27.2
2016-Jul-19 09:00N 28°15' W 049°25'0 3.7 27.2
2016-Jul-19 08:54N 28°15' W 049°26'0 0.8 27.2
2016-Jul-19 08:31N 28°15' W 049°25'0 0.0 27.2
2016-Jul-19 07:54N 28°15' W 049°25'0 0.5 27.3
2016-Jul-19 07:22N 28°15' W 049°25'0 0.3 27.3
2016-Jul-19 06:55N 28°15' W 049°25'1 0.8 27.3
2016-Jul-19 05:08N 28°14' W 049°25'0 0.1 27.3
2016-Jul-19 01:36N 28°14' W 049°25'0 0.0 27.3
2016-Jul-19 00:53N 28°14' W 049°25'012.5 27.3
2016-Jul-19 00:51N 28°13' W 049°24'0 0.1 27.3
2016-Jul-19 00:05N 28°13' W 049°24'0 0.8 27.3
2016-Jul-18 23:29N 28°13' W 049°24'0 1.6 27.3
2016-Jul-18 23:17N 28°13' W 049°24'1 2.9 27.3
2016-Jul-18 22:48N 28°12' W 049°23'0 3.8 27.3
2016-Jul-18 22:43N 28°12' W 049°23'0 0.0 27.3
2016-Jul-18 21:53N 28°12' W 049°23'1 0.5 27.3
2016-Jul-18 19:28N 28°12' W 049°22'1 0.5 27.3
2016-Jul-18 18:29N 28°12' W 049°21'0 0.3 27.3
2016-Jul-18 16:48N 28°12' W 049°21'1 0.4 27.3
2016-Jul-18 14:27N 28°11' W 049°20'1 8.7 27.3
2016-Jul-18 14:23N 28°12' W 049°20'0 0.0 27.3
2016-Jul-18 13:39N 28°12' W 049°20'1 0.7 27.2
2016-Jul-18 12:40N 28°12' W 049°19'1 0.6 27.2
2016-Jul-18 11:27N 28°11' W 049°19'0 0.0 27.2
2016-Jul-18 09:54N 28°11' W 049°19'0 5.6 27.2
2016-Jul-18 09:50N 28°11' W 049°19'0 0.0 27.2
2016-Jul-18 09:45N 28°11' W 049°19'1 0.4 27.2
2016-Jul-18 08:18N 28°11' W 049°18'0 1.2 27.2
2016-Jul-18 07:55N 28°11' W 049°18'0 0.6 27.2
2016-Jul-18 07:08N 28°11' W 049°18'0 0.0 27.2
2016-Jul-18 07:06N 28°11' W 049°18'3 1.6 27.2
2016-Jul-18 05:18N 28°08' W 049°17'0 0.0 27.3
2016-Jul-18 01:58N 28°08' W 049°17'0 0.0 27.4
2016-Jul-18 00:25N 28°08' W 049°17'1 5.2 27.4
2016-Jul-18 00:18N 28°08' W 049°16'0 0.0 27.4
2016-Jul-17 23:35N 28°08' W 049°16'1 1.2 27.5
2016-Jul-17 22:58N 28°08' W 049°15'0 1.2 27.5
2016-Jul-17 22:44N 28°08' W 049°16'0 0.8 27.5
2016-Jul-17 22:22N 28°08' W 049°15'1 0.7 27.5
2016-Jul-17 21:36N 28°08' W 049°15'0 2.4 27.6
2016-Jul-17 21:29N 28°07' W 049°15'0 0.0 27.6
2016-Jul-17 21:23N 28°07' W 049°15'0 0.0 27.6
2016-Jul-17 21:20N 28°07' W 049°15'1 0.4 27.6
2016-Jul-17 19:54N 28°07' W 049°14'1 6.4 27.6
2016-Jul-17 19:49N 28°07' W 049°13'0 0.0 27.6
2016-Jul-17 19:42N 28°07' W 049°13'0 4.2 27.6
2016-Jul-17 19:36N 28°07' W 049°13'0 0.3 27.6
2016-Jul-17 18:39N 28°07' W 049°13'0 0.3 27.6
2016-Jul-17 16:54N 28°07' W 049°13'111.4 27.6
2016-Jul-17 16:50N 28°07' W 049°12'0 0.2 27.6
2016-Jul-17 14:46N 28°07' W 049°12'0 0.0 27.4
2016-Jul-17 14:03N 28°07' W 049°12'0 0.5 27.4
2016-Jul-17 13:08N 28°07' W 049°12'0 0.1 27.4
2016-Jul-17 12:12N 28°07' W 049°11'0 0.0 27.4
2016-Jul-17 11:40N 28°07' W 049°11'1 0.6 27.4
2016-Jul-17 09:55N 28°06' W 049°10'0 0.0 27.4
2016-Jul-17 09:51N 28°06' W 049°10'0 0.0 27.4
2016-Jul-17 08:26N 28°06' W 049°10'0 2.8 27.4
2016-Jul-17 08:20N 28°06' W 049°10'0 0.0 27.4
2016-Jul-17 07:20N 28°06' W 049°10'1 3.5 27.4
2016-Jul-17 07:11N 28°06' W 049°10'2 0.4 27.4
2016-Jul-17 02:18N 28°04' W 049°08'0 0.5
2016-Jul-17 01:32N 28°04' W 049°08'1 0.8 27.6
2016-Jul-17 00:39N 28°04' W 049°08'0 0.1 27.6
2016-Jul-16 23:52N 28°04' W 049°08'0 0.4 27.6
2016-Jul-16 22:59N 28°04' W 049°08'0 0.0 27.7
2016-Jul-16 22:53N 28°04' W 049°08'0 1.3 27.7
2016-Jul-16 22:48N 28°04' W 049°08'1 0.8 27.7
2016-Jul-16 22:00N 28°03' W 049°07'1 4.6 27.7
2016-Jul-16 21:53N 28°03' W 049°07'0 0.0 27.8
2016-Jul-16 21:35N 28°03' W 049°07'0 3.2 27.8
2016-Jul-16 21:31N 28°03' W 049°07'0 0.2 27.8
2016-Jul-16 20:22N 28°03' W 049°07'0 3.2 27.8
2016-Jul-16 20:13N 28°03' W 049°07'0 0.0 27.8
2016-Jul-16 19:53N 28°03' W 049°07'0 3.5 27.8
2016-Jul-16 19:48N 28°02' W 049°06'0 0.0 27.8
2016-Jul-16 18:51N 28°02' W 049°06'2 0.4 27.8
2016-Jul-16 14:16N 28°01' W 049°05'0 0.0 27.8
2016-Jul-16 13:30N 28°01' W 049°05'0 0.5 27.7
2016-Jul-16 12:42N 28°01' W 049°05'1 1.0 27.7
2016-Jul-16 11:45N 28°01' W 049°04'0 0.0 27.7
2016-Jul-16 11:41N 28°01' W 049°04'0 0.0 27.7
2016-Jul-16 10:46N 28°01' W 049°04'0 1.0 27.8
2016-Jul-16 10:31N 28°01' W 049°04'0 6.5 27.8
2016-Jul-16 10:28N 28°01' W 049°05'1 1.7 27.8
2016-Jul-16 10:05N 28°00' W 049°04'0 0.4 27.8
2016-Jul-16 09:02N 28°00' W 049°05'0 3.1 27.8
2016-Jul-16 08:53N 28°00' W 049°04'027.6 27.8
2016-Jul-16 08:52N 28°00' W 049°05'0 0.0 27.8
2016-Jul-16 08:50N 28°00' W 049°05'1 0.4 27.8
2016-Jul-16 07:30N 28°00' W 049°04'0 1.6 27.9
2016-Jul-16 07:26N 28°00' W 049°04'0 1.6 27.9
2016-Jul-16 07:22N 28°00' W 049°04'0 0.0 27.9
2016-Jul-16 07:15N 28°00' W 049°04'1 0.1 27.9
2016-Jul-16 01:54N 27°60' W 049°04'0 3.7
2016-Jul-16 01:52N 27°60' W 049°03'0 0.1 28.0
2016-Jul-16 01:06N 27°60' W 049°03'0 0.6 28.1
2016-Jul-16 01:01N 27°60' W 049°03'0 0.0 28.1
2016-Jul-16 00:18N 27°60' W 049°03'0 0.8 28.1
2016-Jul-16 00:14N 27°60' W 049°04'0 0.1 28.1
2016-Jul-15 23:23N 27°60' W 049°03'1 5.9 28.1
2016-Jul-15 23:17N 27°60' W 049°03'0 0.0 28.1
2016-Jul-15 22:24N 27°60' W 049°03'1 9.5 28.1
2016-Jul-15 22:20N 27°60' W 049°02'0 0.0 28.1
2016-Jul-15 21:46N 27°60' W 049°02'0 0.4 28.0
2016-Jul-15 20:48N 27°60' W 049°03'0 3.7 28.0
2016-Jul-15 20:42N 28°00' W 049°02'0 0.2 28.0
2016-Jul-15 20:01N 28°00' W 049°02'   28.4

Dump ship's entire track history